createdAt,value
2019-01-10T00:01:45.303Z,87.00
2019-01-10T00:04:16.448Z,87.10
2019-01-10T00:06:47.342Z,87.30
2019-01-10T00:09:18.373Z,87.30
2019-01-10T00:11:48.724Z,87.00
2019-01-10T00:14:19.628Z,86.60
2019-01-10T00:16:50.084Z,86.50
2019-01-10T00:19:20.422Z,86.30
2019-01-10T00:21:50.778Z,86.60
2019-01-10T00:24:21.066Z,86.40
2019-01-10T00:26:51.413Z,86.50
2019-01-10T00:29:22.439Z,86.30
2019-01-10T00:31:52.758Z,85.80
2019-01-10T00:34:23.116Z,85.70
2019-01-10T00:36:53.531Z,85.10
2019-01-10T00:39:23.810Z,85.10
2019-01-10T00:41:54.165Z,85.60
2019-01-10T00:44:24.475Z,85.70
2019-01-10T00:46:54.845Z,85.60
2019-01-10T00:49:25.128Z,86.00
2019-01-10T00:51:55.415Z,85.90
2019-01-10T00:54:25.687Z,85.60
2019-01-10T00:56:56.097Z,85.80
2019-01-10T00:59:26.324Z,85.50
2019-01-10T01:01:56.595Z,85.20
2019-01-10T01:04:26.964Z,85.00
2019-01-10T01:06:57.217Z,84.80
2019-01-10T01:09:27.448Z,84.80
2019-01-10T01:11:57.802Z,84.80
2019-01-10T01:14:28.060Z,85.30
2019-01-10T01:16:58.340Z,85.60
2019-01-10T01:19:28.675Z,85.40
2019-01-10T01:21:59.046Z,85.40
2019-01-10T01:24:29.362Z,85.60
2019-01-10T01:27:04.362Z,85.50
2019-01-10T01:29:34.719Z,85.80
2019-01-10T01:32:05.033Z,85.50
2019-01-10T01:34:35.361Z,85.50
2019-01-10T01:37:05.723Z,85.30
2019-01-10T01:39:36.168Z,85.40
2019-01-10T01:42:06.643Z,84.90
2019-01-10T01:44:37.551Z,85.00
2019-01-10T01:47:07.916Z,85.20
2019-01-10T01:49:38.337Z,85.40
2019-01-10T01:52:08.739Z,85.50
2019-01-10T01:54:39.019Z,85.30
2019-01-10T01:57:09.355Z,85.30
2019-01-10T01:59:39.763Z,85.80
2019-01-10T02:02:14.076Z,85.70
2019-01-10T02:04:44.553Z,85.80
2019-01-10T02:07:15.192Z,85.80
2019-01-10T02:09:45.488Z,86.00
2019-01-10T02:12:15.890Z,85.90
2019-01-10T02:14:46.196Z,85.80
2019-01-10T02:17:16.706Z,86.00
2019-01-10T02:19:54.343Z,86.10
2019-01-10T02:22:24.731Z,86.20
2019-01-10T02:24:55.108Z,86.60
2019-01-10T02:27:25.499Z,86.70
2019-01-10T02:29:55.866Z,86.40
2019-01-10T02:32:26.279Z,86.90
2019-01-10T02:34:56.585Z,86.60
2019-01-10T02:37:28.532Z,86.70
2019-01-10T02:39:58.877Z,86.70
2019-01-10T02:42:29.286Z,87.20
2019-01-10T02:44:59.736Z,87.40
2019-01-10T02:47:30.162Z,87.40
2019-01-10T02:50:00.489Z,87.90
2019-01-10T02:52:30.763Z,88.00
2019-01-10T02:55:01.081Z,88.10
2019-01-10T02:57:31.488Z,88.40
2019-01-10T03:00:01.778Z,88.30
2019-01-10T03:02:32.978Z,88.70
2019-01-10T03:05:03.393Z,89.10
2019-01-10T03:07:33.909Z,89.20
2019-01-10T03:10:05.703Z,89.60
2019-01-10T03:12:36.057Z,89.90
2019-01-10T03:15:09.562Z,90.00
2019-01-10T03:17:39.842Z,90.20
2019-01-10T03:20:13.992Z,90.20
2019-01-10T03:22:45.963Z,90.50
2019-01-10T03:25:16.495Z,90.50
2019-01-10T03:27:46.844Z,90.50
2019-01-10T03:30:18.692Z,90.60
2019-01-10T03:32:49.086Z,90.50
2019-01-10T03:35:19.457Z,90.80
2019-01-10T03:37:50.052Z,90.70
2019-01-10T03:40:22.864Z,90.50
2019-01-10T03:42:53.244Z,90.60
2019-01-10T03:45:23.994Z,90.60
2019-01-10T03:47:54.478Z,90.70
2019-01-10T03:50:24.811Z,90.80
2019-01-10T03:52:55.146Z,90.80
2019-01-10T03:55:27.241Z,91.10
2019-01-10T03:57:57.765Z,91.40
2019-01-10T04:00:28.059Z,91.90
2019-01-10T04:02:58.397Z,91.50
2019-01-10T04:05:28.968Z,91.60
2019-01-10T04:07:59.249Z,91.40
2019-01-10T04:10:29.644Z,91.60
2019-01-10T04:13:00.085Z,91.70
2019-01-10T04:15:30.544Z,91.10
2019-01-10T04:18:00.996Z,91.50
2019-01-10T04:20:31.333Z,91.40
2019-01-10T04:23:01.641Z,91.80
2019-01-10T04:25:31.928Z,91.70
2019-01-10T04:28:02.141Z,91.60
2019-01-10T04:30:32.401Z,91.80
2019-01-10T04:33:02.735Z,91.80
2019-01-10T04:35:32.977Z,92.10
2019-01-10T04:38:03.260Z,92.20
2019-01-10T04:40:33.675Z,92.10
2019-01-10T04:43:03.995Z,91.90
2019-01-10T04:45:34.244Z,92.00
2019-01-10T04:48:04.484Z,92.00
2019-01-10T04:50:34.771Z,92.00
2019-01-10T04:53:05.019Z,92.20
2019-01-10T04:55:35.319Z,92.10
2019-01-10T04:58:09.888Z,91.90
2019-01-10T05:00:40.254Z,92.00
2019-01-10T05:03:10.531Z,92.10
2019-01-10T05:05:40.908Z,92.50
2019-01-10T05:08:11.156Z,92.50
2019-01-10T05:10:41.528Z,92.60
2019-01-10T05:13:11.758Z,92.60
2019-01-10T05:15:45.711Z,92.70
2019-01-10T05:18:16.102Z,92.70
2019-01-10T05:20:46.367Z,92.60
2019-01-10T05:23:18.223Z,92.70
2019-01-10T05:25:48.463Z,92.90
2019-01-10T05:28:18.771Z,92.80
2019-01-10T05:30:48.982Z,92.70
2019-01-10T05:33:19.295Z,92.80
2019-01-10T05:35:49.532Z,92.70
2019-01-10T05:38:19.863Z,92.70
2019-01-10T05:40:50.150Z,92.80
2019-01-10T05:43:23.528Z,93.10
2019-01-10T05:45:53.876Z,92.70
2019-01-10T05:48:24.142Z,92.60
2019-01-10T05:50:55.212Z,92.70
2019-01-10T05:53:25.642Z,92.50
2019-01-10T05:55:55.892Z,92.60
2019-01-10T05:58:26.164Z,92.70
2019-01-10T06:00:56.445Z,92.80
2019-01-10T06:03:26.895Z,92.80
2019-01-10T06:05:57.261Z,92.90
2019-01-10T06:08:29.242Z,92.90
2019-01-10T06:10:59.654Z,92.90
2019-01-10T06:13:30.145Z,92.80
2019-01-10T06:16:00.450Z,92.80
2019-01-10T06:18:30.943Z,92.90
2019-01-10T06:21:01.239Z,93.20
2019-01-10T06:23:31.532Z,92.80
2019-01-10T06:26:08.587Z,92.90
2019-01-10T06:28:40.296Z,92.80
2019-01-10T06:31:10.596Z,92.80
2019-01-10T06:33:41.011Z,92.70
2019-01-10T06:36:12.297Z,92.50
2019-01-10T06:38:43.336Z,92.50
2019-01-10T06:41:13.698Z,92.70
2019-01-10T06:43:44.101Z,93.00
2019-01-10T06:46:14.373Z,92.90
2019-01-10T06:48:46.209Z,93.00
2019-01-10T06:51:16.466Z,93.10
2019-01-10T06:53:47.032Z,93.50
2019-01-10T06:56:17.344Z,93.10
2019-01-10T06:58:47.661Z,93.00
2019-01-10T07:01:19.628Z,92.80
2019-01-10T07:03:50.022Z,92.80
2019-01-10T07:06:20.432Z,92.90
2019-01-10T07:08:51.464Z,92.80
2019-01-10T07:11:21.807Z,92.70
2019-01-10T07:13:52.132Z,92.70
2019-01-10T07:16:22.420Z,92.80
2019-01-10T07:18:57.265Z,92.80
2019-01-10T07:21:27.739Z,92.50
2019-01-10T07:23:58.064Z,92.80
2019-01-10T07:26:28.374Z,92.90
2019-01-10T07:29:01.406Z,92.60
2019-01-10T07:31:31.827Z,92.60
2019-01-10T07:34:02.950Z,92.70
2019-01-10T07:36:33.164Z,92.40
2019-01-10T07:39:04.481Z,92.40
2019-01-10T07:41:37.034Z,92.50
2019-01-10T07:44:10.086Z,92.50
2019-01-10T07:46:46.701Z,92.70
2019-01-10T07:49:21.579Z,92.80
2019-01-10T07:51:52.274Z,92.60
2019-01-10T07:54:24.119Z,92.50
2019-01-10T07:56:54.379Z,92.30
2019-01-10T07:59:24.619Z,92.30
2019-01-10T08:01:54.842Z,92.20
2019-01-10T08:04:25.117Z,92.10
2019-01-10T08:06:55.409Z,92.10
2019-01-10T08:09:25.670Z,92.10
2019-01-10T08:12:00.568Z,91.80
2019-01-10T08:14:27.899Z,91.90
2019-01-10T08:16:58.245Z,92.00
2019-01-10T08:19:28.646Z,92.00
2019-01-10T08:21:59.059Z,91.90
2019-01-10T08:24:29.829Z,91.80
2019-01-10T08:27:00.211Z,91.90
2019-01-10T08:29:30.603Z,91.80
2019-01-10T08:32:01.009Z,91.90
2019-01-10T08:34:31.299Z,91.70
2019-01-10T08:37:01.744Z,91.70
2019-01-10T08:39:32.499Z,91.90
2019-01-10T08:42:02.852Z,92.00
2019-01-10T08:44:34.219Z,92.10
2019-01-10T08:47:04.600Z,92.10
2019-01-10T08:49:36.688Z,92.00
2019-01-10T08:52:07.847Z,92.00
2019-01-10T08:54:38.291Z,92.20
2019-01-10T08:57:08.692Z,92.20
2019-01-10T08:59:39.168Z,92.40
2019-01-10T09:02:09.553Z,92.40
2019-01-10T09:04:39.952Z,92.40
2019-01-10T09:07:10.289Z,92.60
2019-01-10T09:09:40.732Z,92.60
2019-01-10T09:12:12.684Z,92.40
2019-01-10T09:14:43.046Z,92.20
2019-01-10T09:17:13.498Z,92.20
2019-01-10T09:19:43.929Z,92.20
2019-01-10T09:22:14.254Z,92.20
2019-01-10T09:24:44.610Z,92.10
2019-01-10T09:27:15.039Z,92.10
2019-01-10T09:29:45.349Z,92.00
2019-01-10T09:32:15.649Z,91.80
2019-01-10T09:34:46.199Z,91.80
2019-01-10T09:37:16.522Z,91.90
2019-01-10T09:39:46.782Z,92.10
2019-01-10T09:42:17.111Z,92.00
2019-01-10T09:44:47.497Z,91.90
2019-01-10T09:47:17.841Z,91.90
2019-01-10T09:49:48.250Z,92.10
2019-01-10T09:52:18.575Z,92.20
2019-01-10T09:54:49.054Z,92.10
2019-01-10T09:57:19.398Z,92.10
2019-01-10T09:59:51.279Z,92.00
2019-01-10T10:02:21.669Z,92.00
2019-01-10T10:04:51.967Z,91.80
2019-01-10T10:07:22.319Z,91.80
2019-01-10T10:09:52.639Z,91.70
2019-01-10T10:12:22.968Z,91.80
2019-01-10T10:14:53.272Z,91.90
2019-01-10T10:17:23.638Z,91.70
2019-01-10T10:19:53.951Z,91.90
2019-01-10T10:22:24.313Z,91.90
2019-01-10T10:24:54.627Z,91.70
2019-01-10T10:27:25.021Z,91.50
2019-01-10T10:29:55.440Z,91.70
2019-01-10T10:32:25.733Z,91.70
2019-01-10T10:34:56.080Z,91.90
2019-01-10T10:37:26.465Z,92.00
2019-01-10T10:39:56.868Z,92.00
2019-01-10T10:42:27.308Z,92.10
2019-01-10T10:44:57.892Z,92.30
2019-01-10T10:47:28.180Z,92.00
2019-01-10T10:49:58.448Z,92.00
2019-01-10T10:52:28.758Z,91.90
2019-01-10T10:54:59.048Z,91.70
2019-01-10T10:57:29.369Z,91.60
2019-01-10T10:59:59.631Z,91.60
2019-01-10T11:02:29.918Z,91.40
2019-01-10T11:05:00.301Z,91.60
2019-01-10T11:07:30.608Z,91.50
2019-01-10T11:10:02.647Z,91.70
2019-01-10T11:12:32.904Z,91.50
2019-01-10T11:15:03.582Z,91.40
2019-01-10T11:17:33.900Z,91.70
2019-01-10T11:20:04.914Z,91.60
2019-01-10T11:22:35.172Z,91.90
2019-01-10T11:25:06.581Z,91.70
2019-01-10T11:27:38.025Z,91.90
2019-01-10T11:30:09.961Z,91.60
2019-01-10T11:32:40.313Z,91.60
2019-01-10T11:35:10.651Z,91.50
2019-01-10T11:37:47.259Z,91.70
2019-01-10T11:40:20.952Z,91.70
2019-01-10T11:42:51.468Z,92.10
2019-01-10T11:45:24.091Z,91.90
2019-01-10T11:47:54.555Z,91.60
2019-01-10T11:50:24.775Z,91.50
2019-01-10T11:52:55.063Z,91.50
2019-01-10T11:55:25.369Z,91.40
2019-01-10T11:57:56.807Z,91.20
2019-01-10T12:00:34.125Z,90.90
2019-01-10T12:03:06.043Z,91.20
2019-01-10T12:05:47.351Z,91.10
2019-01-10T12:08:10.380Z,91.20
2019-01-10T12:10:40.663Z,91.40
2019-01-10T12:13:11.095Z,91.20
2019-01-10T12:15:41.366Z,91.30
2019-01-10T12:18:11.701Z,91.20
2019-01-10T12:20:42.071Z,90.90
2019-01-10T12:23:12.475Z,90.50
2019-01-10T12:25:42.784Z,90.90
2019-01-10T12:28:13.223Z,90.40
2019-01-10T12:30:43.409Z,90.60
2019-01-10T12:33:13.695Z,90.40
2019-01-10T12:35:44.025Z,90.60
2019-01-10T12:38:14.536Z,91.20
2019-01-10T12:40:44.974Z,91.20
2019-01-10T12:43:15.317Z,91.30
2019-01-10T12:45:45.834Z,91.40
2019-01-10T12:48:16.182Z,91.40
2019-01-10T12:50:46.500Z,91.30
2019-01-10T12:53:16.953Z,91.60
2019-01-10T12:55:50.265Z,91.30
2019-01-10T12:58:20.578Z,91.50
2019-01-10T13:00:50.888Z,91.90
2019-01-10T13:03:21.394Z,91.90
2019-01-10T13:05:51.676Z,91.90
2019-01-10T13:08:22.044Z,91.70
2019-01-10T13:10:52.384Z,91.60
2019-01-10T13:13:23.154Z,91.40
2019-01-10T13:15:53.496Z,91.50
2019-01-10T13:18:23.853Z,91.20
2019-01-10T13:20:54.154Z,90.60
2019-01-10T13:23:24.486Z,90.80
2019-01-10T13:25:59.576Z,90.50
2019-01-10T13:28:26.822Z,90.50
2019-01-10T13:30:57.125Z,89.70
2019-01-10T13:33:27.430Z,88.80
2019-01-10T13:35:57.799Z,88.50
2019-01-10T13:38:28.245Z,88.50
2019-01-10T13:41:00.093Z,89.00
2019-01-10T13:43:33.549Z,89.50
2019-01-10T13:46:03.906Z,89.60
2019-01-10T13:48:34.510Z,89.50
2019-01-10T13:51:04.747Z,89.40
2019-01-10T13:53:39.107Z,88.50
2019-01-10T13:56:09.455Z,90.00
2019-01-10T13:58:39.897Z,89.90
2019-01-10T14:01:10.241Z,90.00
2019-01-10T14:06:35.940Z,90.60
2019-01-10T14:09:09.864Z,90.90
2019-01-10T14:11:40.575Z,90.90
2019-01-10T14:14:10.891Z,91.00
2019-01-10T14:16:41.985Z,91.10
2019-01-10T14:19:12.322Z,91.00
2019-01-10T14:21:46.596Z,91.30
2019-01-10T14:24:15.781Z,91.10
2019-01-10T14:26:46.059Z,91.20
2019-01-10T14:29:16.481Z,91.50
2019-01-10T14:31:47.583Z,91.40
2019-01-10T14:34:18.969Z,91.40
2019-01-10T14:36:49.462Z,91.70
2019-01-10T14:39:19.777Z,91.60
2019-01-10T14:41:49.977Z,91.60
2019-01-10T14:44:20.515Z,91.70
2019-01-10T14:46:50.952Z,91.80
2019-01-10T14:49:21.272Z,92.00
2019-01-10T14:51:51.627Z,91.90
2019-01-10T14:54:21.904Z,92.10
2019-01-10T14:56:57.814Z,92.10
2019-01-10T14:59:24.211Z,92.10
2019-01-10T15:01:54.786Z,92.10
2019-01-10T15:04:25.253Z,92.40
2019-01-10T15:06:58.858Z,92.30
2019-01-10T15:09:29.261Z,92.40
2019-01-10T15:11:59.668Z,92.50
2019-01-10T15:14:30.120Z,92.50
2019-01-10T15:17:00.495Z,92.50
2019-01-10T15:19:30.782Z,92.70
2019-01-10T15:22:01.099Z,92.80
2019-01-10T15:24:31.566Z,92.80
2019-01-10T15:27:03.489Z,92.70
2019-01-10T15:29:33.933Z,92.80
2019-01-10T15:32:05.337Z,92.80
2019-01-10T15:34:35.779Z,92.80
2019-01-10T15:37:06.112Z,92.80
2019-01-10T15:39:36.391Z,92.90
2019-01-10T15:42:06.682Z,93.00
2019-01-10T15:44:37.034Z,92.90
2019-01-10T15:47:07.368Z,93.00
2019-01-10T15:49:37.733Z,93.00
2019-01-10T15:52:07.987Z,93.10
2019-01-10T15:54:39.044Z,93.10
2019-01-10T15:57:09.307Z,93.30
2019-01-10T15:59:43.196Z,92.90
2019-01-10T16:02:13.488Z,93.20
2019-01-10T16:04:43.878Z,93.40
2019-01-10T16:07:14.223Z,93.50
2019-01-10T16:09:44.739Z,93.40
2019-01-10T16:12:15.148Z,93.50
2019-01-10T16:14:45.442Z,93.70
2019-01-10T16:17:15.792Z,93.80
2019-01-10T16:19:46.137Z,94.00
2019-01-10T16:22:16.433Z,94.00
2019-01-10T16:24:46.728Z,94.20
2019-01-10T16:27:17.128Z,94.10
2019-01-10T16:29:47.428Z,94.10
2019-01-10T16:32:17.695Z,94.10
2019-01-10T16:34:50.717Z,94.20
2019-01-10T16:37:21.074Z,94.30
2019-01-10T16:39:51.356Z,94.40
2019-01-10T16:42:21.640Z,94.60
2019-01-10T16:44:51.936Z,94.50
2019-01-10T16:47:22.471Z,94.60
2019-01-10T16:49:52.780Z,94.50
2019-01-10T16:52:23.115Z,94.60
2019-01-10T16:54:53.445Z,94.60
2019-01-10T16:57:23.817Z,94.60
2019-01-10T16:59:58.635Z,94.80
2019-01-10T17:02:36.282Z,94.70
2019-01-10T17:05:06.484Z,94.80
2019-01-10T17:07:36.934Z,94.80
2019-01-10T17:10:07.632Z,94.50
2019-01-10T17:12:37.930Z,94.70
2019-01-10T17:15:09.033Z,94.70
2019-01-10T17:17:39.403Z,94.70
2019-01-10T17:20:11.941Z,94.80
2019-01-10T17:22:42.308Z,94.90
2019-01-10T17:25:14.458Z,94.90
2019-01-10T17:27:45.130Z,95.00
2019-01-10T17:30:21.908Z,95.00
2019-01-10T17:32:52.410Z,95.20
2019-01-10T17:35:24.673Z,95.30
2019-01-10T17:37:55.115Z,95.40
2019-01-10T17:40:26.779Z,95.30
2019-01-10T17:42:57.521Z,95.50
2019-01-10T17:45:30.402Z,95.60
2019-01-10T17:48:01.183Z,95.70
2019-01-10T17:50:31.821Z,95.70
2019-01-10T17:53:02.514Z,95.70
2019-01-10T17:55:33.000Z,95.80
2019-01-10T17:58:03.518Z,96.00
2019-01-10T18:00:34.019Z,96.00
2019-01-10T18:03:05.268Z,96.00
2019-01-10T18:05:35.675Z,96.10
2019-01-10T18:08:06.484Z,96.20
2019-01-10T18:10:37.122Z,96.20
2019-01-10T18:13:07.592Z,96.30
2019-01-10T18:15:38.108Z,96.20
2019-01-10T18:18:08.802Z,96.30
2019-01-10T18:20:45.058Z,96.40
2019-01-10T18:23:16.256Z,96.40
2019-01-10T18:25:49.330Z,96.60
2019-01-10T18:28:22.697Z,96.70
2019-01-10T18:30:53.247Z,96.70
2019-01-10T18:33:25.220Z,96.70
2019-01-10T18:35:55.825Z,96.80
2019-01-10T18:38:27.925Z,96.80
2019-01-10T18:40:59.934Z,96.90
2019-01-10T18:43:30.324Z,96.90
2019-01-10T18:46:00.744Z,97.00
2019-01-10T18:48:31.138Z,97.10
2019-01-10T18:51:02.473Z,97.20
2019-01-10T18:53:33.832Z,97.20
2019-01-10T18:56:07.228Z,97.30
2019-01-10T18:58:37.944Z,97.40
2019-01-10T19:01:09.951Z,97.40
2019-01-10T19:03:40.397Z,97.50
2019-01-10T19:06:11.069Z,97.60
2019-01-10T19:08:41.549Z,97.60
2019-01-10T19:11:12.107Z,97.60
2019-01-10T19:13:42.583Z,97.70
2019-01-10T19:16:12.863Z,97.70
2019-01-10T19:18:43.255Z,97.80
2019-01-10T19:21:13.681Z,97.90
2019-01-10T19:23:44.145Z,98.10
2019-01-10T19:26:14.594Z,98.20
2019-01-10T19:28:44.958Z,98.20
2019-01-10T19:31:15.505Z,98.20
2019-01-10T19:33:45.847Z,98.30
2019-01-10T19:36:16.220Z,98.20
2019-01-10T19:38:47.691Z,98.30
2019-01-10T19:41:18.105Z,98.30
2019-01-10T19:43:48.657Z,98.40
2019-01-10T19:46:19.104Z,98.30
2019-01-10T19:48:49.552Z,98.40
2019-01-10T19:51:19.970Z,98.30
2019-01-10T19:53:50.768Z,98.30
2019-01-10T19:56:21.158Z,98.20
2019-01-10T19:58:51.563Z,98.30
2019-01-10T20:01:26.000Z,98.20
2019-01-10T20:03:57.485Z,98.20
2019-01-10T20:06:27.836Z,98.20
2019-01-10T20:08:58.265Z,98.60
2019-01-10T20:11:30.961Z,98.20
2019-01-10T20:14:01.441Z,98.30
2019-01-10T20:16:31.818Z,98.30
2019-01-10T20:19:02.273Z,98.30
2019-01-10T20:21:32.723Z,98.40
2019-01-10T20:24:03.119Z,98.40
2019-01-10T20:26:33.681Z,98.40
2019-01-10T20:29:04.401Z,98.40
2019-01-10T20:31:34.815Z,98.40
2019-01-10T20:34:05.459Z,98.50
2019-01-10T20:36:35.861Z,98.60
2019-01-10T20:39:08.820Z,98.60
2019-01-10T20:41:39.182Z,98.70
2019-01-10T20:44:09.868Z,98.70
2019-01-10T20:46:40.288Z,98.70
2019-01-10T20:49:10.616Z,98.70
2019-01-10T20:51:41.035Z,98.70
2019-01-10T20:54:12.510Z,98.70
2019-01-10T20:56:43.004Z,98.80
2019-01-10T20:59:14.672Z,98.80
2019-01-10T21:01:44.988Z,98.80
2019-01-10T21:04:15.407Z,98.70
2019-01-10T21:06:45.779Z,98.70
2019-01-10T21:09:16.164Z,98.80
2019-01-10T21:11:46.537Z,98.80
2019-01-10T21:14:16.941Z,98.90
2019-01-10T21:16:47.333Z,98.90
2019-01-10T21:19:17.845Z,98.90
2019-01-10T21:21:48.197Z,99.00
2019-01-10T21:24:18.585Z,99.00
2019-01-10T21:26:48.906Z,99.10
2019-01-10T21:29:25.307Z,99.10
2019-01-10T21:31:55.676Z,99.10
2019-01-10T21:34:26.166Z,99.10
2019-01-10T21:36:58.657Z,99.10
2019-01-10T21:39:29.072Z,99.10
2019-01-10T21:41:59.424Z,99.10
2019-01-10T21:44:30.804Z,99.10
2019-01-10T21:47:01.174Z,99.10
2019-01-10T21:49:31.563Z,99.10
2019-01-10T21:52:01.920Z,99.20
2019-01-10T21:54:33.921Z,99.10
2019-01-10T21:57:04.247Z,99.10
2019-01-10T21:59:34.599Z,99.20
2019-01-10T22:02:04.991Z,99.20
2019-01-10T22:04:36.747Z,99.20
2019-01-10T22:07:07.073Z,99.20
2019-01-10T22:09:42.970Z,99.20
2019-01-10T22:12:13.747Z,99.30
2019-01-10T22:14:44.094Z,99.40
2019-01-10T22:17:14.346Z,99.40
2019-01-10T22:19:44.656Z,99.40
2019-01-10T22:22:15.202Z,99.50
2019-01-10T22:24:45.783Z,99.50
2019-01-10T22:27:16.164Z,99.50
2019-01-10T22:29:47.190Z,99.60
2019-01-10T22:32:17.530Z,99.60
2019-01-10T22:34:47.850Z,99.60
2019-01-10T22:37:18.129Z,99.60
2019-01-10T22:39:51.513Z,99.60
2019-01-10T22:42:21.774Z,99.70
2019-01-10T22:44:53.581Z,99.70
2019-01-10T22:47:23.854Z,99.70
2019-01-10T22:49:54.219Z,99.70
2019-01-10T22:52:24.469Z,99.70
2019-01-10T22:54:55.172Z,99.70
2019-01-10T22:57:25.351Z,99.80
2019-01-10T22:59:55.583Z,99.90
2019-01-10T23:02:26.455Z,99.80
2019-01-10T23:04:56.783Z,99.80
2019-01-10T23:07:27.020Z,99.80
2019-01-10T23:10:04.734Z,99.90
2019-01-10T23:12:36.072Z,99.80
2019-01-10T23:15:35.351Z,99.90
2019-01-10T23:18:06.584Z,99.90
2019-01-10T23:20:36.922Z,99.90
2019-01-10T23:23:08.911Z,99.90
2019-01-10T23:25:39.277Z,99.90
2019-01-10T23:28:09.747Z,99.90
2019-01-10T23:30:49.342Z,99.90
2019-01-10T23:33:20.040Z,99.90
2019-01-10T23:35:55.947Z,99.90
2019-01-10T23:38:26.252Z,99.90
2019-01-10T23:40:58.195Z,99.90
2019-01-10T23:43:28.538Z,99.90
2019-01-10T23:45:59.332Z,99.90
2019-01-10T23:48:29.569Z,99.90
2019-01-10T23:51:01.764Z,99.90
2019-01-10T23:53:32.094Z,99.90
2019-01-10T23:56:02.494Z,99.90
2019-01-10T23:58:32.855Z,99.90
